sensor_id;sensor_type;location;lat;lon;timestamp;pressure;altitude;pressure_sealevel;temperature;humidity
34506;BME280;20748;42.632;23.198;2022-12-18T00:01:37;92656.25;;;6.91;100.00
34506;BME280;20748;42.632;23.198;2022-12-18T00:04:18;92653.66;;;6.96;100.00
34506;BME280;20748;42.632;23.198;2022-12-18T00:06:51;92652.34;;;7.04;100.00
34506;BME280;20748;42.632;23.198;2022-12-18T00:09:24;92652.09;;;6.95;100.00
34506;BME280;20748;42.632;23.198;2022-12-18T00:12:10;92659.34;;;6.88;100.00
34506;BME280;20748;42.632;23.198;2022-12-18T00:14:47;92665.28;;;6.73;100.00
34506;BME280;20748;42.632;23.198;2022-12-18T00:17:20;92666.03;;;6.63;100.00
34506;BME280;20748;42.632;23.198;2022-12-18T00:19:52;92680.50;;;6.38;100.00
34506;BME280;20748;42.632;23.198;2022-12-18T00:22:24;92678.13;;;6.26;100.00
34506;BME280;20748;42.632;23.198;2022-12-18T00:24:57;92672.72;;;6.33;100.00
34506;BME280;20748;42.632;23.198;2022-12-18T00:27:29;92678.63;;;6.18;100.00
34506;BME280;20748;42.632;23.198;2022-12-18T00:30:02;92673.16;;;6.09;100.00
34506;BME280;20748;42.632;23.198;2022-12-18T00:32:35;92679.81;;;5.95;100.00
34506;BME280;20748;42.632;23.198;2022-12-18T00:35:08;92680.06;;;5.98;100.00
34506;BME280;20748;42.632;23.198;2022-12-18T00:37:40;92677.81;;;6.07;100.00
34506;BME280;20748;42.632;23.198;2022-12-18T00:40:13;92685.53;;;6.02;100.00
34506;BME280;20748;42.632;23.198;2022-12-18T00:42:45;92693.44;;;5.80;100.00
34506;BME280;20748;42.632;23.198;2022-12-18T00:45:30;92688.22;;;5.69;100.00
34506;BME280;20748;42.632;23.198;2022-12-18T00:48:04;92691.03;;;5.68;100.00
34506;BME280;20748;42.632;23.198;2022-12-18T00:50:36;92692.13;;;5.77;100.00
34506;BME280;20748;42.632;23.198;2022-12-18T00:53:10;92695.41;;;5.62;100.00
34506;BME280;20748;42.632;23.198;2022-12-18T00:55:42;92694.78;;;5.44;100.00
34506;BME280;20748;42.632;23.198;2022-12-18T00:58:16;92700.53;;;5.51;100.00
34506;BME280;20748;42.632;23.198;2022-12-18T01:00:48;92697.13;;;5.51;100.00
34506;BME280;20748;42.632;23.198;2022-12-18T01:03:22;92707.06;;;5.59;100.00
34506;BME280;20748;42.632;23.198;2022-12-18T01:05:54;92700.75;;;5.50;100.00
34506;BME280;20748;42.632;23.198;2022-12-18T01:08:28;92699.97;;;5.44;100.00
34506;BME280;20748;42.632;23.198;2022-12-18T01:11:00;92708.41;;;5.34;100.00
34506;BME280;20748;42.632;23.198;2022-12-18T01:13:33;92708.69;;;5.33;100.00
34506;BME280;20748;42.632;23.198;2022-12-18T01:16:06;92707.56;;;5.23;100.00
34506;BME280;20748;42.632;23.198;2022-12-18T01:18:40;92703.47;;;5.28;100.00
34506;BME280;20748;42.632;23.198;2022-12-18T01:21:15;92704.72;;;5.25;100.00
34506;BME280;20748;42.632;23.198;2022-12-18T01:23:51;92709.38;;;5.23;100.00
34506;BME280;20748;42.632;23.198;2022-12-18T01:26:25;92699.78;;;5.23;100.00
34506;BME280;20748;42.632;23.198;2022-12-18T01:28:59;92705.34;;;5.37;100.00
34506;BME280;20748;42.632;23.198;2022-12-18T01:31:32;92709.06;;;5.14;100.00
34506;BME280;20748;42.632;23.198;2022-12-18T01:34:08;92715.50;;;5.12;100.00
34506;BME280;20748;42.632;23.198;2022-12-18T01:36:40;92711.53;;;5.04;100.00
34506;BME280;20748;42.632;23.198;2022-12-18T01:39:14;92710.69;;;4.98;100.00
34506;BME280;20748;42.632;23.198;2022-12-18T01:41:47;92718.41;;;4.93;100.00
34506;BME280;20748;42.632;23.198;2022-12-18T01:44:58;92719.72;;;4.95;100.00
34506;BME280;20748;42.632;23.198;2022-12-18T01:47:34;92720.19;;;4.87;100.00
34506;BME280;20748;42.632;23.198;2022-12-18T01:50:11;92736.72;;;4.86;100.00
34506;BME280;20748;42.632;23.198;2022-12-18T01:52:47;92730.28;;;4.89;100.00
34506;BME280;20748;42.632;23.198;2022-12-18T01:55:22;92736.03;;;4.68;100.00
34506;BME280;20748;42.632;23.198;2022-12-18T01:57:58;92735.53;;;4.72;100.00
34506;BME280;20748;42.632;23.198;2022-12-18T02:00:31;92733.41;;;4.63;100.00
34506;BME280;20748;42.632;23.198;2022-12-18T02:03:04;92730.63;;;4.48;100.00
34506;BME280;20748;42.632;23.198;2022-12-18T02:05:43;92739.28;;;4.59;100.00
34506;BME280;20748;42.632;23.198;2022-12-18T02:08:21;92735.91;;;4.58;100.00
34506;BME280;20748;42.632;23.198;2022-12-18T02:11:02;92737.78;;;4.63;100.00
34506;BME280;20748;42.632;23.198;2022-12-18T02:13:41;92738.50;;;4.58;100.00
34506;BME280;20748;42.632;23.198;2022-12-18T02:16:21;92746.78;;;4.60;100.00
34506;BME280;20748;42.632;23.198;2022-12-18T02:18:59;92751.03;;;4.72;100.00
34506;BME280;20748;42.632;23.198;2022-12-18T02:21:40;92757.53;;;4.74;100.00
34506;BME280;20748;42.632;23.198;2022-12-18T02:24:29;92758.44;;;4.85;100.00
34506;BME280;20748;42.632;23.198;2022-12-18T02:27:07;92756.69;;;4.91;100.00
34506;BME280;20748;42.632;23.198;2022-12-18T02:29:44;92752.81;;;4.93;100.00
34506;BME280;20748;42.632;23.198;2022-12-18T02:32:25;92755.06;;;4.84;100.00
34506;BME280;20748;42.632;23.198;2022-12-18T02:35:01;92757.94;;;4.88;100.00
34506;BME280;20748;42.632;23.198;2022-12-18T02:37:36;92760.22;;;4.84;100.00
34506;BME280;20748;42.632;23.198;2022-12-18T02:40:12;92770.34;;;4.86;100.00
34506;BME280;20748;42.632;23.198;2022-12-18T02:42:46;92763.00;;;4.78;100.00
34506;BME280;20748;42.632;23.198;2022-12-18T02:45:22;92761.44;;;4.77;100.00
34506;BME280;20748;42.632;23.198;2022-12-18T02:47:54;92764.31;;;4.80;100.00
34506;BME280;20748;42.632;23.198;2022-12-18T02:50:31;92765.06;;;4.76;100.00
34506;BME280;20748;42.632;23.198;2022-12-18T02:53:13;92765.41;;;4.84;100.00
34506;BME280;20748;42.632;23.198;2022-12-18T02:55:59;92768.38;;;4.71;100.00
34506;BME280;20748;42.632;23.198;2022-12-18T02:58:41;92767.28;;;4.67;100.00
34506;BME280;20748;42.632;23.198;2022-12-18T03:01:30;92766.69;;;4.60;100.00
34506;BME280;20748;42.632;23.198;2022-12-18T03:04:07;92771.00;;;4.54;100.00
34506;BME280;20748;42.632;23.198;2022-12-18T03:06:44;92775.22;;;4.60;100.00
34506;BME280;20748;42.632;23.198;2022-12-18T03:09:22;92779.50;;;4.49;100.00
34506;BME280;20748;42.632;23.198;2022-12-18T03:12:04;92781.25;;;4.43;100.00
34506;BME280;20748;42.632;23.198;2022-12-18T03:15:00;92786.28;;;4.33;100.00
34506;BME280;20748;42.632;23.198;2022-12-18T03:17:36;92787.13;;;4.39;100.00
34506;BME280;20748;42.632;23.198;2022-12-18T03:20:16;92802.47;;;4.46;100.00
34506;BME280;20748;42.632;23.198;2022-12-18T03:22:53;92792.78;;;4.36;100.00
34506;BME280;20748;42.632;23.198;2022-12-18T03:25:28;92791.53;;;4.38;100.00
34506;BME280;20748;42.632;23.198;2022-12-18T03:28:03;92793.53;;;4.36;100.00
34506;BME280;20748;42.632;23.198;2022-12-18T03:30:40;92798.41;;;4.33;100.00
34506;BME280;20748;42.632;23.198;2022-12-18T03:33:16;92803.47;;;4.45;100.00
34506;BME280;20748;42.632;23.198;2022-12-18T03:35:53;92805.41;;;4.54;100.00
34506;BME280;20748;42.632;23.198;2022-12-18T03:38:25;92812.66;;;4.57;100.00
34506;BME280;20748;42.632;23.198;2022-12-18T03:41:02;92824.81;;;4.57;100.00
34506;BME280;20748;42.632;23.198;2022-12-18T03:43:49;92822.91;;;4.47;100.00
34506;BME280;20748;42.632;23.198;2022-12-18T03:46:28;92827.56;;;4.50;100.00
34506;BME280;20748;42.632;23.198;2022-12-18T03:49:08;92835.59;;;4.71;100.00
34506;BME280;20748;42.632;23.198;2022-12-18T03:51:48;92833.59;;;4.78;100.00
34506;BME280;20748;42.632;23.198;2022-12-18T03:54:22;92828.25;;;4.85;100.00
34506;BME280;20748;42.632;23.198;2022-12-18T03:57:05;92832.63;;;4.84;100.00
34506;BME280;20748;42.632;23.198;2022-12-18T03:59:40;92834.75;;;4.88;100.00
34506;BME280;20748;42.632;23.198;2022-12-18T04:02:16;92839.97;;;4.93;100.00
34506;BME280;20748;42.632;23.198;2022-12-18T04:04:52;92835.63;;;4.99;100.00
34506;BME280;20748;42.632;23.198;2022-12-18T04:07:25;92840.03;;;4.98;100.00
34506;BME280;20748;42.632;23.198;2022-12-18T04:10:03;92834.84;;;4.98;100.00
34506;BME280;20748;42.632;23.198;2022-12-18T04:12:39;92844.28;;;5.09;100.00
34506;BME280;20748;42.632;23.198;2022-12-18T04:15:15;92846.41;;;5.13;100.00
34506;BME280;20748;42.632;23.198;2022-12-18T04:17:49;92849.69;;;5.08;100.00
34506;BME280;20748;42.632;23.198;2022-12-18T04:20:26;92857.16;;;5.04;100.00
34506;BME280;20748;42.632;23.198;2022-12-18T04:22:58;92860.25;;;5.01;100.00
34506;BME280;20748;42.632;23.198;2022-12-18T04:25:31;92863.94;;;5.10;100.00
34506;BME280;20748;42.632;23.198;2022-12-18T04:28:11;92863.31;;;5.20;100.00
34506;BME280;20748;42.632;23.198;2022-12-18T04:30:44;92868.47;;;5.20;100.00
34506;BME280;20748;42.632;23.198;2022-12-18T04:33:19;92872.63;;;5.21;100.00
34506;BME280;20748;42.632;23.198;2022-12-18T04:35:52;92884.16;;;5.14;100.00
34506;BME280;20748;42.632;23.198;2022-12-18T04:38:25;92884.13;;;5.08;100.00
34506;BME280;20748;42.632;23.198;2022-12-18T04:41:05;92886.16;;;5.06;100.00
34506;BME280;20748;42.632;23.198;2022-12-18T04:43:38;92882.66;;;4.95;100.00
34506;BME280;20748;42.632;23.198;2022-12-18T04:46:12;92891.22;;;4.96;100.00
34506;BME280;20748;42.632;23.198;2022-12-18T04:48:46;92888.31;;;4.92;100.00
34506;BME280;20748;42.632;23.198;2022-12-18T04:51:18;92891.81;;;4.81;100.00
34506;BME280;20748;42.632;23.198;2022-12-18T04:53:57;92902.75;;;4.66;100.00
34506;BME280;20748;42.632;23.198;2022-12-18T04:56:31;92904.38;;;4.55;100.00
34506;BME280;20748;42.632;23.198;2022-12-18T04:59:03;92912.56;;;4.47;100.00
34506;BME280;20748;42.632;23.198;2022-12-18T05:01:36;92915.50;;;4.55;100.00
34506;BME280;20748;42.632;23.198;2022-12-18T05:04:09;92919.88;;;4.55;100.00
34506;BME280;20748;42.632;23.198;2022-12-18T05:06:42;92917.56;;;4.36;100.00
34506;BME280;20748;42.632;23.198;2022-12-18T05:09:14;92917.81;;;4.18;100.00
34506;BME280;20748;42.632;23.198;2022-12-18T05:11:46;92930.66;;;3.95;100.00
34506;BME280;20748;42.632;23.198;2022-12-18T05:14:19;92924.22;;;3.98;100.00
34506;BME280;20748;42.632;23.198;2022-12-18T05:16:51;92940.34;;;4.05;100.00
34506;BME280;20748;42.632;23.198;2022-12-18T05:19:29;92939.72;;;4.15;100.00
34506;BME280;20748;42.632;23.198;2022-12-18T05:22:02;92941.28;;;4.16;100.00
34506;BME280;20748;42.632;23.198;2022-12-18T05:24:34;92942.16;;;4.22;100.00
34506;BME280;20748;42.632;23.198;2022-12-18T05:27:07;92943.72;;;4.23;100.00
34506;BME280;20748;42.632;23.198;2022-12-18T05:29:39;92943.81;;;4.11;100.00
34506;BME280;20748;42.632;23.198;2022-12-18T05:32:11;92952.88;;;3.96;100.00
34506;BME280;20748;42.632;23.198;2022-12-18T05:34:44;92949.88;;;4.05;100.00
34506;BME280;20748;42.632;23.198;2022-12-18T05:37:17;92952.88;;;3.96;100.00
34506;BME280;20748;42.632;23.198;2022-12-18T05:39:49;92967.16;;;3.87;100.00
34506;BME280;20748;42.632;23.198;2022-12-18T05:42:21;92968.50;;;3.89;100.00
34506;BME280;20748;42.632;23.198;2022-12-18T05:44:54;92974.84;;;3.82;100.00
34506;BME280;20748;42.632;23.198;2022-12-18T05:47:26;92977.00;;;3.73;100.00
34506;BME280;20748;42.632;23.198;2022-12-18T05:49:59;92979.50;;;3.68;100.00
34506;BME280;20748;42.632;23.198;2022-12-18T05:52:32;92985.06;;;3.76;100.00
34506;BME280;20748;42.632;23.198;2022-12-18T05:55:04;92987.78;;;3.70;100.00
34506;BME280;20748;42.632;23.198;2022-12-18T05:57:37;92981.91;;;3.74;100.00
34506;BME280;20748;42.632;23.198;2022-12-18T06:00:10;92984.56;;;3.92;100.00
34506;BME280;20748;42.632;23.198;2022-12-18T06:02:46;92985.09;;;3.94;100.00
34506;BME280;20748;42.632;23.198;2022-12-18T06:05:20;92990.25;;;3.94;100.00
34506;BME280;20748;42.632;23.198;2022-12-18T06:07:53;92995.13;;;3.78;100.00
34506;BME280;20748;42.632;23.198;2022-12-18T06:10:25;93000.25;;;3.61;100.00
34506;BME280;20748;42.632;23.198;2022-12-18T06:12:57;92998.94;;;3.58;100.00
34506;BME280;20748;42.632;23.198;2022-12-18T06:15:30;92999.63;;;3.54;100.00
34506;BME280;20748;42.632;23.198;2022-12-18T06:18:03;93004.78;;;3.54;100.00
34506;BME280;20748;42.632;23.198;2022-12-18T06:20:36;93017.59;;;3.78;100.00
34506;BME280;20748;42.632;23.198;2022-12-18T06:23:11;93004.63;;;3.89;100.00
34506;BME280;20748;42.632;23.198;2022-12-18T06:25:43;93011.56;;;4.01;100.00
34506;BME280;20748;42.632;23.198;2022-12-18T06:28:16;93018.44;;;3.95;100.00
34506;BME280;20748;42.632;23.198;2022-12-18T06:30:48;93019.97;;;4.08;100.00
34506;BME280;20748;42.632;23.198;2022-12-18T06:33:21;93018.94;;;4.09;100.00
34506;BME280;20748;42.632;23.198;2022-12-18T06:35:54;93024.19;;;4.14;100.00
34506;BME280;20748;42.632;23.198;2022-12-18T06:38:32;93025.28;;;4.19;100.00
34506;BME280;20748;42.632;23.198;2022-12-18T06:41:06;93018.97;;;3.97;100.00
34506;BME280;20748;42.632;23.198;2022-12-18T06:43:39;93034.66;;;4.08;100.00
34506;BME280;20748;42.632;23.198;2022-12-18T06:46:12;93042.50;;;4.13;100.00
34506;BME280;20748;42.632;23.198;2022-12-18T06:48:47;93035.09;;;4.05;100.00
34506;BME280;20748;42.632;23.198;2022-12-18T06:51:24;93048.78;;;4.17;100.00
34506;BME280;20748;42.632;23.198;2022-12-18T06:53:56;93051.13;;;4.19;100.00
34506;BME280;20748;42.632;23.198;2022-12-18T06:56:28;93051.44;;;4.22;100.00
34506;BME280;20748;42.632;23.198;2022-12-18T06:59:01;93038.75;;;4.21;100.00
34506;BME280;20748;42.632;23.198;2022-12-18T07:01:33;93049.19;;;4.26;100.00
34506;BME280;20748;42.632;23.198;2022-12-18T07:04:06;93047.38;;;4.26;100.00
34506;BME280;20748;42.632;23.198;2022-12-18T07:06:39;93048.72;;;4.29;100.00
34506;BME280;20748;42.632;23.198;2022-12-18T07:09:11;93054.41;;;4.31;100.00
34506;BME280;20748;42.632;23.198;2022-12-18T07:11:43;93049.50;;;4.29;100.00
34506;BME280;20748;42.632;23.198;2022-12-18T07:14:16;93061.94;;;4.33;100.00
34506;BME280;20748;42.632;23.198;2022-12-18T07:16:48;93061.63;;;4.29;100.00
34506;BME280;20748;42.632;23.198;2022-12-18T07:19:20;93064.44;;;4.27;100.00
34506;BME280;20748;42.632;23.198;2022-12-18T07:21:53;93057.81;;;4.32;100.00
34506;BME280;20748;42.632;23.198;2022-12-18T07:24:26;93064.53;;;4.33;99.74
34506;BME280;20748;42.632;23.198;2022-12-18T07:26:59;93063.19;;;4.30;99.38
34506;BME280;20748;42.632;23.198;2022-12-18T07:29:31;93070.78;;;4.20;98.98
34506;BME280;20748;42.632;23.198;2022-12-18T07:32:04;93073.59;;;4.18;98.64
34506;BME280;20748;42.632;23.198;2022-12-18T07:34:37;93079.09;;;4.22;99.59
34506;BME280;20748;42.632;23.198;2022-12-18T07:37:10;93082.53;;;4.27;100.00
34506;BME280;20748;42.632;23.198;2022-12-18T07:39:42;93088.63;;;4.21;98.14
34506;BME280;20748;42.632;23.198;2022-12-18T07:42:14;93082.69;;;4.21;98.83
34506;BME280;20748;42.632;23.198;2022-12-18T07:45:06;93081.59;;;4.05;98.74
34506;BME280;20748;42.632;23.198;2022-12-18T07:47:38;93083.53;;;3.97;99.92
34506;BME280;20748;42.632;23.198;2022-12-18T07:50:12;93082.09;;;3.89;99.36
34506;BME280;20748;42.632;23.198;2022-12-18T07:52:45;93099.09;;;3.73;100.00
34506;BME280;20748;42.632;23.198;2022-12-18T07:55:18;93091.72;;;3.53;100.00
34506;BME280;20748;42.632;23.198;2022-12-18T07:57:50;93092.41;;;3.48;100.00
34506;BME280;20748;42.632;23.198;2022-12-18T08:00:29;93085.81;;;3.29;100.00
34506;BME280;20748;42.632;23.198;2022-12-18T08:03:01;93077.16;;;3.23;100.00
34506;BME280;20748;42.632;23.198;2022-12-18T08:05:34;93085.34;;;3.44;100.00
34506;BME280;20748;42.632;23.198;2022-12-18T08:08:07;93094.19;;;3.48;100.00
34506;BME280;20748;42.632;23.198;2022-12-18T08:10:39;93091.16;;;3.51;100.00
34506;BME280;20748;42.632;23.198;2022-12-18T08:13:12;93104.19;;;3.44;100.00
34506;BME280;20748;42.632;23.198;2022-12-18T08:15:44;93112.59;;;3.63;100.00
34506;BME280;20748;42.632;23.198;2022-12-18T08:18:16;93113.81;;;3.73;100.00
34506;BME280;20748;42.632;23.198;2022-12-18T08:20:48;93123.34;;;3.72;100.00
34506;BME280;20748;42.632;23.198;2022-12-18T08:23:22;93117.63;;;3.70;100.00
34506;BME280;20748;42.632;23.198;2022-12-18T08:25:58;93132.53;;;3.68;100.00
34506;BME280;20748;42.632;23.198;2022-12-18T08:28:30;93135.38;;;3.67;100.00
34506;BME280;20748;42.632;23.198;2022-12-18T08:31:03;93127.28;;;3.75;100.00
34506;BME280;20748;42.632;23.198;2022-12-18T08:33:37;93137.56;;;3.87;100.00
34506;BME280;20748;42.632;23.198;2022-12-18T08:36:11;93137.22;;;3.95;100.00
34506;BME280;20748;42.632;23.198;2022-12-18T08:38:44;93140.94;;;3.87;100.00
34506;BME280;20748;42.632;23.198;2022-12-18T08:41:17;93138.03;;;3.84;100.00
34506;BME280;20748;42.632;23.198;2022-12-18T08:43:49;93138.13;;;3.89;100.00
34506;BME280;20748;42.632;23.198;2022-12-18T08:46:41;93143.44;;;3.70;100.00
34506;BME280;20748;42.632;23.198;2022-12-18T08:49:14;93144.69;;;3.56;100.00
34506;BME280;20748;42.632;23.198;2022-12-18T08:51:46;93144.25;;;3.59;100.00
34506;BME280;20748;42.632;23.198;2022-12-18T08:54:19;93139.75;;;3.66;100.00
34506;BME280;20748;42.632;23.198;2022-12-18T08:56:52;93142.53;;;3.76;100.00
34506;BME280;20748;42.632;23.198;2022-12-18T08:59:24;93136.91;;;3.92;100.00
34506;BME280;20748;42.632;23.198;2022-12-18T09:01:57;93148.19;;;4.02;100.00
34506;BME280;20748;42.632;23.198;2022-12-18T09:04:30;93150.56;;;4.04;100.00
34506;BME280;20748;42.632;23.198;2022-12-18T09:07:02;93149.31;;;4.07;100.00
34506;BME280;20748;42.632;23.198;2022-12-18T09:09:35;93140.78;;;4.06;100.00
34506;BME280;20748;42.632;23.198;2022-12-18T09:12:08;93145.72;;;4.08;100.00
34506;BME280;20748;42.632;23.198;2022-12-18T09:14:40;93146.09;;;3.99;100.00
34506;BME280;20748;42.632;23.198;2022-12-18T09:17:13;93142.00;;;4.03;100.00
34506;BME280;20748;42.632;23.198;2022-12-18T09:19:45;93133.63;;;3.96;100.00
34506;BME280;20748;42.632;23.198;2022-12-18T09:22:18;93130.59;;;3.87;100.00
34506;BME280;20748;42.632;23.198;2022-12-18T09:24:51;93134.91;;;3.70;100.00
34506;BME280;20748;42.632;23.198;2022-12-18T09:27:23;93127.97;;;3.70;100.00
34506;BME280;20748;42.632;23.198;2022-12-18T09:29:55;93126.84;;;3.66;100.00
34506;BME280;20748;42.632;23.198;2022-12-18T09:32:28;93117.06;;;3.68;100.00
34506;BME280;20748;42.632;23.198;2022-12-18T09:35:00;93140.28;;;3.80;100.00
34506;BME280;20748;42.632;23.198;2022-12-18T09:37:33;93139.84;;;3.71;100.00
34506;BME280;20748;42.632;23.198;2022-12-18T09:40:12;93140.06;;;3.70;100.00
34506;BME280;20748;42.632;23.198;2022-12-18T09:42:48;93135.59;;;3.65;100.00
34506;BME280;20748;42.632;23.198;2022-12-18T09:45:23;93144.69;;;3.68;100.00
34506;BME280;20748;42.632;23.198;2022-12-18T09:47:56;93149.25;;;3.78;100.00
34506;BME280;20748;42.632;23.198;2022-12-18T09:50:32;93132.75;;;3.79;100.00
34506;BME280;20748;42.632;23.198;2022-12-18T09:53:12;93130.66;;;3.75;100.00
34506;BME280;20748;42.632;23.198;2022-12-18T09:55:49;93133.31;;;3.81;100.00
34506;BME280;20748;42.632;23.198;2022-12-18T09:58:27;93120.97;;;3.71;100.00
34506;BME280;20748;42.632;23.198;2022-12-18T10:01:00;93123.66;;;3.76;100.00
34506;BME280;20748;42.632;23.198;2022-12-18T10:03:32;93121.88;;;3.65;100.00
34506;BME280;20748;42.632;23.198;2022-12-18T10:06:10;93122.00;;;3.70;100.00
34506;BME280;20748;42.632;23.198;2022-12-18T10:08:49;93116.16;;;3.74;100.00
34506;BME280;20748;42.632;23.198;2022-12-18T10:11:32;93117.53;;;3.65;100.00
34506;BME280;20748;42.632;23.198;2022-12-18T10:14:10;93116.25;;;3.80;100.00
34506;BME280;20748;42.632;23.198;2022-12-18T10:16:54;93122.53;;;3.72;100.00
34506;BME280;20748;42.632;23.198;2022-12-18T10:19:38;93126.16;;;3.71;100.00
34506;BME280;20748;42.632;23.198;2022-12-18T10:22:19;93129.53;;;3.59;100.00
34506;BME280;20748;42.632;23.198;2022-12-18T10:25:02;93130.69;;;3.52;100.00
34506;BME280;20748;42.632;23.198;2022-12-18T10:27:36;93125.47;;;3.63;100.00
34506;BME280;20748;42.632;23.198;2022-12-18T10:30:13;93129.66;;;3.53;100.00
34506;BME280;20748;42.632;23.198;2022-12-18T10:32:46;93124.94;;;3.61;100.00
34506;BME280;20748;42.632;23.198;2022-12-18T10:35:20;93127.53;;;3.61;100.00
34506;BME280;20748;42.632;23.198;2022-12-18T10:38:01;93127.72;;;3.72;100.00
34506;BME280;20748;42.632;23.198;2022-12-18T10:40:48;93128.16;;;3.81;100.00
34506;BME280;20748;42.632;23.198;2022-12-18T10:43:24;93119.31;;;3.65;100.00
34506;BME280;20748;42.632;23.198;2022-12-18T10:48:55;93128.53;;;3.36;100.00
34506;BME280;20748;42.632;23.198;2022-12-18T10:51:30;93133.81;;;3.42;100.00
34506;BME280;20748;42.632;23.198;2022-12-18T10:54:12;93129.22;;;3.20;100.00
34506;BME280;20748;42.632;23.198;2022-12-18T10:56:46;93132.22;;;3.17;100.00
34506;BME280;20748;42.632;23.198;2022-12-18T10:59:19;93132.91;;;3.12;100.00
34506;BME280;20748;42.632;23.198;2022-12-18T11:01:55;93140.00;;;3.29;100.00
34506;BME280;20748;42.632;23.198;2022-12-18T11:04:30;93116.19;;;3.27;100.00
34506;BME280;20748;42.632;23.198;2022-12-18T11:07:04;93136.97;;;3.44;99.44
34506;BME280;20748;42.632;23.198;2022-12-18T11:09:39;93126.50;;;3.27;96.77
34506;BME280;20748;42.632;23.198;2022-12-18T11:12:16;93143.56;;;3.52;97.02
34506;BME280;20748;42.632;23.198;2022-12-18T11:14:51;93142.34;;;3.42;96.57
34506;BME280;20748;42.632;23.198;2022-12-18T11:17:28;93148.16;;;3.49;95.08
34506;BME280;20748;42.632;23.198;2022-12-18T11:20:04;93152.63;;;3.30;92.30
34506;BME280;20748;42.632;23.198;2022-12-18T11:22:39;93159.84;;;3.40;91.37
34506;BME280;20748;42.632;23.198;2022-12-18T11:25:18;93167.47;;;3.47;91.70
34506;BME280;20748;42.632;23.198;2022-12-18T11:28:24;93157.81;;;3.66;89.68
34506;BME280;20748;42.632;23.198;2022-12-18T11:31:20;93163.97;;;3.77;89.68
34506;BME280;20748;42.632;23.198;2022-12-18T11:33:59;93159.59;;;3.66;89.22
34506;BME280;20748;42.632;23.198;2022-12-18T11:36:53;93157.22;;;3.76;87.46
34506;BME280;20748;42.632;23.198;2022-12-18T11:39:32;93153.53;;;3.84;86.90
34506;BME280;20748;42.632;23.198;2022-12-18T11:42:12;93161.19;;;3.67;86.93
34506;BME280;20748;42.632;23.198;2022-12-18T11:44:48;93167.69;;;3.45;86.43
34506;BME280;20748;42.632;23.198;2022-12-18T11:47:27;93170.81;;;3.71;88.78
34506;BME280;20748;42.632;23.198;2022-12-18T11:50:10;93167.44;;;3.83;86.77
34506;BME280;20748;42.632;23.198;2022-12-18T11:52:44;93170.00;;;3.95;86.02
34506;BME280;20748;42.632;23.198;2022-12-18T11:55:27;93170.09;;;4.00;84.61
34506;BME280;20748;42.632;23.198;2022-12-18T11:58:07;93164.25;;;4.05;87.44
34506;BME280;20748;42.632;23.198;2022-12-18T12:00:48;93152.03;;;4.00;86.41
34506;BME280;20748;42.632;23.198;2022-12-18T12:03:46;93159.22;;;3.98;86.20
34506;BME280;20748;42.632;23.198;2022-12-18T12:06:25;93161.16;;;3.79;84.74
34506;BME280;20748;42.632;23.198;2022-12-18T12:09:03;93159.38;;;3.79;87.45
34506;BME280;20748;42.632;23.198;2022-12-18T12:11:44;93162.16;;;3.78;86.81
34506;BME280;20748;42.632;23.198;2022-12-18T12:14:34;93160.03;;;3.74;86.71
34506;BME280;20748;42.632;23.198;2022-12-18T12:17:16;93163.06;;;3.59;84.86
34506;BME280;20748;42.632;23.198;2022-12-18T12:19:58;93160.38;;;3.54;85.82
34506;BME280;20748;42.632;23.198;2022-12-18T12:22:37;93161.84;;;3.74;85.31
34506;BME280;20748;42.632;23.198;2022-12-18T12:25:21;93141.19;;;3.74;86.45
34506;BME280;20748;42.632;23.198;2022-12-18T12:28:10;93160.69;;;3.94;83.80
34506;BME280;20748;42.632;23.198;2022-12-18T12:30:54;93158.66;;;3.96;85.08
34506;BME280;20748;42.632;23.198;2022-12-18T12:33:38;93162.94;;;4.02;85.63
34506;BME280;20748;42.632;23.198;2022-12-18T12:36:20;93162.00;;;4.08;84.32
34506;BME280;20748;42.632;23.198;2022-12-18T12:38:59;93163.69;;;4.14;85.26
34506;BME280;20748;42.632;23.198;2022-12-18T12:41:34;93159.84;;;4.17;84.84
34506;BME280;20748;42.632;23.198;2022-12-18T12:44:29;93162.88;;;4.14;83.09
34506;BME280;20748;42.632;23.198;2022-12-18T12:47:09;93164.78;;;4.19;84.24
34506;BME280;20748;42.632;23.198;2022-12-18T12:49:45;93169.06;;;4.13;83.20
34506;BME280;20748;42.632;23.198;2022-12-18T12:52:27;93166.69;;;4.23;83.32
34506;BME280;20748;42.632;23.198;2022-12-18T12:55:05;93164.88;;;4.24;85.43
34506;BME280;20748;42.632;23.198;2022-12-18T12:57:51;93169.19;;;4.18;83.86
34506;BME280;20748;42.632;23.198;2022-12-18T13:00:30;93161.00;;;4.09;84.74
34506;BME280;20748;42.632;23.198;2022-12-18T13:03:13;93177.03;;;4.11;83.37
34506;BME280;20748;42.632;23.198;2022-12-18T13:05:51;93179.88;;;3.86;84.19
34506;BME280;20748;42.632;23.198;2022-12-18T13:08:28;93180.78;;;3.80;85.99
34506;BME280;20748;42.632;23.198;2022-12-18T13:11:32;93182.28;;;3.63;86.22
34506;BME280;20748;42.632;23.198;2022-12-18T13:14:33;93181.94;;;3.60;85.99
34506;BME280;20748;42.632;23.198;2022-12-18T13:17:27;93193.59;;;3.62;86.29
34506;BME280;20748;42.632;23.198;2022-12-18T13:20:10;93183.03;;;3.76;87.85
34506;BME280;20748;42.632;23.198;2022-12-18T13:22:45;93191.59;;;3.76;87.78
34506;BME280;20748;42.632;23.198;2022-12-18T13:25:33;93190.78;;;3.76;88.77
34506;BME280;20748;42.632;23.198;2022-12-18T13:28:12;93185.06;;;3.86;89.06
34506;BME280;20748;42.632;23.198;2022-12-18T13:30:54;93195.16;;;3.99;89.84
34506;BME280;20748;42.632;23.198;2022-12-18T13:33:49;93203.34;;;4.08;87.88
34506;BME280;20748;42.632;23.198;2022-12-18T13:36:43;93203.22;;;4.03;86.95
34506;BME280;20748;42.632;23.198;2022-12-18T13:39:23;93178.66;;;3.88;87.59
34506;BME280;20748;42.632;23.198;2022-12-18T13:42:37;93202.22;;;3.92;87.79
34506;BME280;20748;42.632;23.198;2022-12-18T13:45:48;93204.56;;;4.06;89.42